createdAt,value
2018-09-05T00:00:42.652Z,5.53
2018-09-05T00:03:11.586Z,5.00
2018-09-05T00:05:40.242Z,5.70
2018-09-05T00:08:09.124Z,5.17
2018-09-05T00:10:38.140Z,5.97
2018-09-05T00:13:06.625Z,6.07
2018-09-05T00:15:36.683Z,5.90
2018-09-05T00:18:05.143Z,5.50
2018-09-05T00:20:40.260Z,5.47
2018-09-05T00:23:08.770Z,4.97
2018-09-05T00:25:37.731Z,5.83
2018-09-05T00:28:06.598Z,5.73
2018-09-05T00:30:35.635Z,5.80
2018-09-05T00:33:04.598Z,5.20
2018-09-05T00:35:33.267Z,5.63
2018-09-05T00:38:02.112Z,5.17
2018-09-05T00:40:31.089Z,5.57
2018-09-05T00:43:00.041Z,5.67
2018-09-05T00:45:29.045Z,5.50
2018-09-05T00:47:57.881Z,5.77
2018-09-05T00:50:26.480Z,5.43
2018-09-05T00:52:55.333Z,5.83
2018-09-05T00:55:24.328Z,5.57
2018-09-05T00:57:53.233Z,5.57
2018-09-05T01:00:22.312Z,6.07
2018-09-05T01:02:50.857Z,5.97
2018-09-05T01:05:19.957Z,5.50
2018-09-05T01:07:48.433Z,5.47
2018-09-05T01:10:17.516Z,5.50
2018-09-05T01:12:46.012Z,5.20
2018-09-05T01:15:15.071Z,6.17
2018-09-05T01:17:43.605Z,5.63
2018-09-05T01:20:12.635Z,6.13
2018-09-05T01:22:41.108Z,5.30
2018-09-05T01:25:10.105Z,5.87
2018-09-05T01:27:38.688Z,5.57
2018-09-05T01:30:08.774Z,5.80
2018-09-05T01:32:37.645Z,6.10
2018-09-05T01:35:06.292Z,5.53
2018-09-05T01:37:34.741Z,5.70
2018-09-05T01:40:03.443Z,5.70
2018-09-05T01:42:32.308Z,5.83
2018-09-05T01:45:02.358Z,5.97
2018-09-05T01:47:30.817Z,5.60
2018-09-05T01:49:59.488Z,6.00
2018-09-05T01:52:27.945Z,6.07
2018-09-05T01:54:56.966Z,5.77
2018-09-05T01:57:25.870Z,5.37
2018-09-05T01:59:54.909Z,6.20
2018-09-05T02:02:24.914Z,6.30
2018-09-05T02:04:53.793Z,5.50
2018-09-05T02:07:22.756Z,5.80
2018-09-05T02:09:51.381Z,5.50
2018-09-05T02:12:19.871Z,5.37
2018-09-05T02:14:50.901Z,5.03
2018-09-05T02:17:19.434Z,5.33
2018-09-05T02:19:49.052Z,5.17
2018-09-05T02:22:17.933Z,5.30
2018-09-05T02:24:46.620Z,6.00
2018-09-05T02:27:15.096Z,4.73
2018-09-05T02:29:45.725Z,6.23
2018-09-05T02:32:14.173Z,5.50
2018-09-05T02:34:43.780Z,6.10
2018-09-05T02:37:12.226Z,5.40
2018-09-05T02:39:40.839Z,5.20
2018-09-05T02:42:09.747Z,5.77
2018-09-05T02:44:41.407Z,5.77
2018-09-05T02:47:09.918Z,5.53
2018-09-05T02:49:38.536Z,5.70
2018-09-05T02:52:07.431Z,6.40
2018-09-05T02:54:36.004Z,5.47
2018-09-05T02:57:04.866Z,6.03
2018-09-05T02:59:33.515Z,5.97
2018-09-05T03:02:02.033Z,5.70
2018-09-05T03:04:31.025Z,5.03
2018-09-05T03:06:59.517Z,6.37
2018-09-05T03:09:28.211Z,6.20
2018-09-05T03:11:57.097Z,6.00
2018-09-05T03:14:26.138Z,5.13
2018-09-05T03:16:55.051Z,5.97
2018-09-05T03:19:23.779Z,5.87
2018-09-05T03:21:52.657Z,5.53
2018-09-05T03:24:21.247Z,6.00
2018-09-05T03:26:50.168Z,5.67
2018-09-05T03:29:19.115Z,5.70
2018-09-05T03:31:48.001Z,6.23
2018-09-05T03:34:16.659Z,6.80
2018-09-05T03:36:45.554Z,6.53
2018-09-05T03:39:15.193Z,6.70
2018-09-05T03:41:43.613Z,6.77
2018-09-05T03:44:14.285Z,7.17
2018-09-05T03:46:42.742Z,7.10
2018-09-05T03:49:11.775Z,7.00
2018-09-05T03:51:40.275Z,6.93
2018-09-05T03:54:09.250Z,6.00
2018-09-05T03:56:37.808Z,6.57
2018-09-05T03:59:06.374Z,6.30
2018-09-05T04:01:35.439Z,6.40
2018-09-05T04:04:04.064Z,6.93
2018-09-05T04:06:32.509Z,6.43
2018-09-05T04:09:08.341Z,6.90
2018-09-05T04:11:37.248Z,6.90
2018-09-05T04:14:09.593Z,6.87
2018-09-05T04:16:38.438Z,6.50
2018-09-05T04:19:07.504Z,6.70
2018-09-05T04:21:35.981Z,7.20
2018-09-05T04:24:05.955Z,7.60
2018-09-05T04:26:34.982Z,7.33
2018-09-05T04:29:04.735Z,7.17
2018-09-05T04:31:33.251Z,8.57
2018-09-05T04:34:07.335Z,7.97
2018-09-05T04:36:36.159Z,8.00
2018-09-05T04:39:07.719Z,7.60
2018-09-05T04:41:36.215Z,7.67
2018-09-05T04:44:05.918Z,7.47
2018-09-05T04:46:34.776Z,7.30
2018-09-05T04:49:03.831Z,7.93
2018-09-05T04:51:32.822Z,7.23
2018-09-05T04:54:01.467Z,7.30
2018-09-05T04:56:30.411Z,7.30
2018-09-05T04:58:59.068Z,7.80
2018-09-05T05:01:27.943Z,7.70
2018-09-05T05:03:57.981Z,7.87
2018-09-05T05:06:26.441Z,7.03
2018-09-05T05:08:57.006Z,7.03
2018-09-05T05:11:25.531Z,7.23
2018-09-05T05:13:54.269Z,7.63
2018-09-05T05:16:23.113Z,7.40
2018-09-05T05:18:52.102Z,8.10
2018-09-05T05:21:20.603Z,6.70
2018-09-05T05:23:51.597Z,7.33
2018-09-05T05:26:20.517Z,7.40
2018-09-05T05:28:50.160Z,6.67
2018-09-05T05:31:18.670Z,8.00
2018-09-05T05:33:47.677Z,7.60
2018-09-05T05:36:16.986Z,8.00
2018-09-05T05:38:47.033Z,8.50
2018-09-05T05:41:15.568Z,7.47
2018-09-05T05:43:45.194Z,7.33
2018-09-05T05:46:13.748Z,6.87
2018-09-05T05:48:45.751Z,7.33
2018-09-05T05:51:14.649Z,7.40
2018-09-05T05:53:43.250Z,6.57
2018-09-05T05:56:11.690Z,7.07
2018-09-05T05:58:41.715Z,7.37
2018-09-05T06:01:10.579Z,6.90
2018-09-05T06:03:40.168Z,7.20
2018-09-05T06:06:08.680Z,7.60
2018-09-05T06:08:38.120Z,6.87
2018-09-05T06:11:06.709Z,6.80
2018-09-05T06:13:36.704Z,7.20
2018-09-05T06:16:05.204Z,6.83
2018-09-05T06:18:34.728Z,7.47
2018-09-05T06:21:03.217Z,7.60
2018-09-05T06:23:35.821Z,7.93
2018-09-05T06:26:04.399Z,7.40
2018-09-05T06:28:33.461Z,6.90
2018-09-05T06:31:02.390Z,7.60
2018-09-05T06:33:31.645Z,7.00
2018-09-05T06:36:00.114Z,7.33
2018-09-05T06:38:30.132Z,7.10
2018-09-05T06:40:59.041Z,7.23
2018-09-05T06:43:27.989Z,7.07
2018-09-05T06:45:56.476Z,7.93
2018-09-05T06:48:27.043Z,7.87
2018-09-05T06:51:01.153Z,7.33
2018-09-05T06:53:30.023Z,7.97
2018-09-05T06:55:58.603Z,7.87
2018-09-05T06:58:27.196Z,8.43
2018-09-05T07:01:01.801Z,7.50
2018-09-05T07:03:30.435Z,8.03
2018-09-05T07:05:59.952Z,7.83
2018-09-05T07:08:28.425Z,7.43
2018-09-05T07:11:03.475Z,8.53
2018-09-05T07:13:32.393Z,7.97
2018-09-05T07:16:04.844Z,8.53
2018-09-05T07:18:33.448Z,7.73
2018-09-05T07:21:06.482Z,7.90
2018-09-05T07:23:30.955Z,7.83
2018-09-05T07:25:59.940Z,8.10
2018-09-05T07:28:28.933Z,8.20
2018-09-05T07:30:58.072Z,7.70
2018-09-05T07:33:26.758Z,7.97
2018-09-05T07:35:55.852Z,8.43
2018-09-05T07:38:24.721Z,8.13
2018-09-05T07:40:54.870Z,8.60
2018-09-05T07:43:23.756Z,8.27
2018-09-05T07:45:52.791Z,8.37
2018-09-05T07:48:21.768Z,7.53
2018-09-05T07:50:50.390Z,7.93
2018-09-05T07:53:18.908Z,7.47
2018-09-05T07:55:47.547Z,7.47
2018-09-05T07:58:16.071Z,7.77
2018-09-05T08:00:44.727Z,7.47
2018-09-05T08:03:13.199Z,7.60
2018-09-05T08:05:45.384Z,8.10
2018-09-05T08:08:14.238Z,8.03
2018-09-05T08:10:42.849Z,8.10
2018-09-05T08:13:11.340Z,7.97
2018-09-05T08:15:44.430Z,8.93
2018-09-05T08:18:13.414Z,8.10
2018-09-05T08:20:42.570Z,8.57
2018-09-05T08:23:11.032Z,7.93
2018-09-05T08:25:40.669Z,9.43
2018-09-05T08:28:09.505Z,8.90
2018-09-05T08:30:38.199Z,8.13
2018-09-05T08:33:06.640Z,8.20
2018-09-05T08:35:36.008Z,9.40
2018-09-05T08:38:04.788Z,9.07
2018-09-05T08:40:35.900Z,8.50
2018-09-05T08:43:04.458Z,8.83
2018-09-05T08:45:34.782Z,9.20
2018-09-05T08:48:03.183Z,8.97
2018-09-05T08:50:34.193Z,8.00
2018-09-05T08:53:03.131Z,9.07
2018-09-05T08:55:32.233Z,8.40
2018-09-05T08:58:01.102Z,7.93
2018-09-05T09:00:30.090Z,7.93
2018-09-05T09:02:59.051Z,7.33
2018-09-05T09:05:28.222Z,8.53
2018-09-05T09:07:57.169Z,8.57
2018-09-05T09:10:26.313Z,8.20
2018-09-05T09:12:55.331Z,8.13
2018-09-05T09:15:23.955Z,9.07
2018-09-05T09:17:52.884Z,8.77
2018-09-05T09:20:22.016Z,9.00
2018-09-05T09:22:50.927Z,9.97
2018-09-05T09:25:19.936Z,9.73
2018-09-05T09:27:48.945Z,9.87
2018-09-05T09:30:17.478Z,11.30
2018-09-05T09:32:46.429Z,12.03
2018-09-05T09:35:15.616Z,11.80
2018-09-05T09:37:44.133Z,12.50
2018-09-05T09:40:13.154Z,12.83
2018-09-05T09:42:42.052Z,11.50
2018-09-05T09:45:10.700Z,11.37
2018-09-05T09:47:39.607Z,10.60
2018-09-05T09:50:08.316Z,11.87
2018-09-05T09:52:39.607Z,11.63
2018-09-05T09:55:09.315Z,10.40
2018-09-05T09:57:38.491Z,11.33
2018-09-05T10:00:08.209Z,11.07
2018-09-05T10:02:42.250Z,11.10
2018-09-05T10:05:17.473Z,8.50
2018-09-05T10:07:52.219Z,9.47
2018-09-05T10:10:26.294Z,10.83
2018-09-05T10:13:02.243Z,9.20
2018-09-05T10:15:36.278Z,10.27
2018-09-05T10:18:10.176Z,9.83
2018-09-05T10:20:42.331Z,9.63
2018-09-05T10:23:10.990Z,10.03
2018-09-05T10:25:39.878Z,10.40
2018-09-05T10:28:08.502Z,8.30
2018-09-05T10:30:37.397Z,8.20
2018-09-05T10:33:06.384Z,7.20
2018-09-05T10:35:34.872Z,8.37
2018-09-05T10:38:03.831Z,7.20
2018-09-05T10:40:32.737Z,5.90
2018-09-05T10:43:05.643Z,6.60
2018-09-05T10:45:34.514Z,6.20
2018-09-05T10:48:03.573Z,6.67
2018-09-05T10:50:32.095Z,6.60
2018-09-05T10:53:00.731Z,6.23
2018-09-05T10:55:29.456Z,5.47
2018-09-05T10:57:58.496Z,5.87
2018-09-05T11:00:27.487Z,5.30
2018-09-05T11:02:56.563Z,5.73
2018-09-05T11:05:25.045Z,5.77
2018-09-05T11:07:54.027Z,5.47
2018-09-05T11:10:22.588Z,4.03
2018-09-05T11:12:55.465Z,4.83
2018-09-05T11:15:24.358Z,4.20
2018-09-05T11:17:52.983Z,5.27
2018-09-05T11:20:21.962Z,5.40
2018-09-05T11:22:51.005Z,5.03
2018-09-05T11:25:19.878Z,4.53
2018-09-05T11:27:48.969Z,5.30
2018-09-05T11:30:17.522Z,4.60
2018-09-05T11:32:46.570Z,4.33
2018-09-05T11:35:15.438Z,4.30
2018-09-05T11:37:45.474Z,4.30
2018-09-05T11:40:14.407Z,4.00
2018-09-05T11:42:45.452Z,4.67
2018-09-05T11:45:14.309Z,4.30
2018-09-05T11:47:43.089Z,4.33
2018-09-05T11:50:12.070Z,4.30
2018-09-05T11:52:41.153Z,4.47
2018-09-05T11:55:09.994Z,4.00
2018-09-05T11:57:42.316Z,4.10
2018-09-05T12:00:11.259Z,4.17
2018-09-05T12:02:40.273Z,4.17
2018-09-05T12:05:08.818Z,3.80
2018-09-05T12:07:37.478Z,4.23
2018-09-05T12:10:06.001Z,4.10
2018-09-05T12:12:35.008Z,3.93
2018-09-05T12:15:03.938Z,4.00
2018-09-05T12:17:32.514Z,4.57
2018-09-05T12:20:01.025Z,4.07
2018-09-05T12:22:30.008Z,4.23
2018-09-05T12:24:58.527Z,3.60
2018-09-05T12:27:27.127Z,5.20
2018-09-05T12:29:56.786Z,4.53
2018-09-05T12:32:25.845Z,4.33
2018-09-05T12:34:54.312Z,4.20
2018-09-05T12:37:24.313Z,5.00
2018-09-05T12:39:52.783Z,4.30
2018-09-05T12:42:21.767Z,4.40
2018-09-05T12:44:50.276Z,4.30
2018-09-05T12:47:18.877Z,3.90
2018-09-05T12:49:47.846Z,4.10
2018-09-05T12:52:16.873Z,3.60
2018-09-05T12:54:45.846Z,4.00
2018-09-05T12:57:15.254Z,4.37
2018-09-05T12:59:43.840Z,4.60
2018-09-05T13:02:13.227Z,4.40
2018-09-05T13:04:42.206Z,4.20
2018-09-05T13:07:12.439Z,4.13
2018-09-05T13:09:41.347Z,4.50
2018-09-05T13:12:11.399Z,4.43
2018-09-05T13:14:39.925Z,4.40
2018-09-05T13:17:08.482Z,4.50
2018-09-05T13:19:37.386Z,4.30
2018-09-05T13:22:05.988Z,4.33
2018-09-05T13:24:34.484Z,4.07
2018-09-05T13:27:03.098Z,4.27
2018-09-05T13:29:31.996Z,4.67
2018-09-05T13:32:02.739Z,4.27
2018-09-05T13:34:31.625Z,4.27
2018-09-05T13:37:04.473Z,4.00
2018-09-05T13:39:33.379Z,4.90
2018-09-05T13:42:02.983Z,4.93
2018-09-05T13:44:31.903Z,4.77
2018-09-05T13:47:00.978Z,4.53
2018-09-05T13:49:29.860Z,4.80
2018-09-05T13:52:03.131Z,4.47
2018-09-05T13:54:32.297Z,4.67
2018-09-05T13:57:01.031Z,4.63
2018-09-05T13:59:30.302Z,4.47
2018-09-05T14:02:02.616Z,4.87
2018-09-05T14:04:31.501Z,4.30
2018-09-05T14:07:03.210Z,4.70
2018-09-05T14:09:32.071Z,4.80
2018-09-05T14:12:02.641Z,4.40
2018-09-05T14:14:31.880Z,4.80
2018-09-05T14:17:00.973Z,4.40
2018-09-05T14:19:29.863Z,4.40
2018-09-05T14:21:59.060Z,4.17
2018-09-05T14:24:28.183Z,4.43
2018-09-05T14:26:57.283Z,4.40
2018-09-05T14:29:25.779Z,4.20
2018-09-05T14:31:54.402Z,4.93
2018-09-05T14:34:23.296Z,4.57
2018-09-05T14:36:58.187Z,4.37
2018-09-05T14:39:27.086Z,5.10
2018-09-05T14:41:57.107Z,4.67
2018-09-05T14:44:25.962Z,4.92
2018-09-05T14:46:55.006Z,5.17
2018-09-05T14:49:23.915Z,4.70
2018-09-05T14:51:53.490Z,4.47
2018-09-05T14:54:22.496Z,4.62
2018-09-05T14:56:51.446Z,4.70
2018-09-05T14:59:20.332Z,4.97
2018-09-05T15:01:51.414Z,5.20
2018-09-05T15:04:20.344Z,4.85
2018-09-05T15:06:52.360Z,4.97
2018-09-05T15:09:20.829Z,4.87
2018-09-05T15:11:49.829Z,5.00
2018-09-05T15:14:18.787Z,4.90
2018-09-05T15:16:48.194Z,4.50
2018-09-05T15:19:17.086Z,4.62
2018-09-05T15:21:48.113Z,4.72
2018-09-05T15:24:16.946Z,5.00
2018-09-05T15:26:45.994Z,4.95
2018-09-05T15:31:44.619Z,4.47
2018-09-05T15:34:13.624Z,4.42
2018-09-05T15:36:42.659Z,4.47
2018-09-05T15:39:11.999Z,4.55
2018-09-05T15:41:41.086Z,4.40
2018-09-05T15:44:09.594Z,4.85
2018-09-05T15:46:39.683Z,4.45
2018-09-05T15:49:08.708Z,4.58
2018-09-05T15:51:37.754Z,4.30
2018-09-05T15:54:06.281Z,4.92
2018-09-05T15:56:34.964Z,4.60
2018-09-05T15:59:03.465Z,4.65
2018-09-05T16:01:33.478Z,4.47
2018-09-05T16:04:02.442Z,4.83
2018-09-05T16:06:31.985Z,4.70
2018-09-05T16:09:00.961Z,4.65
2018-09-05T16:11:29.985Z,4.83
2018-09-05T16:13:58.845Z,4.87
2018-09-05T16:16:27.480Z,4.67
2018-09-05T16:18:56.027Z,4.37
2018-09-05T16:21:24.581Z,5.50
2018-09-05T16:23:53.029Z,4.42
2018-09-05T16:26:22.604Z,5.03
2018-09-05T16:28:51.513Z,4.60
2018-09-05T16:31:20.524Z,4.33
2018-09-05T16:33:49.412Z,4.60
2018-09-05T16:36:19.497Z,4.53
2018-09-05T16:38:49.220Z,4.57
2018-09-05T16:41:21.481Z,4.87
2018-09-05T16:43:50.394Z,4.83
2018-09-05T16:46:23.745Z,5.03
2018-09-05T16:48:52.249Z,4.20
2018-09-05T16:51:22.273Z,4.53
2018-09-05T16:53:51.160Z,4.70
2018-09-05T16:56:20.878Z,4.50
2018-09-05T16:58:49.949Z,4.40
2018-09-05T17:01:19.038Z,4.50
2018-09-05T17:03:48.054Z,5.17
2018-09-05T17:06:17.745Z,4.63
2018-09-05T17:08:47.107Z,5.23
2018-09-05T17:11:17.201Z,4.70
2018-09-05T17:13:46.129Z,5.07
2018-09-05T17:16:16.480Z,5.20
2018-09-05T17:18:45.054Z,5.20
2018-09-05T17:21:16.443Z,4.80
2018-09-05T17:23:46.436Z,4.53
2018-09-05T17:26:17.140Z,4.23
2018-09-05T17:28:46.532Z,4.70
2018-09-05T17:31:15.806Z,4.47
2018-09-05T17:33:48.351Z,4.57
2018-09-05T17:36:18.936Z,5.10
2018-09-05T17:38:50.879Z,4.63
2018-09-05T17:41:23.087Z,4.30
2018-09-05T17:43:52.050Z,5.13
2018-09-05T17:46:24.248Z,4.10
2018-09-05T17:48:54.137Z,4.83
2018-09-05T17:51:22.775Z,5.37
2018-09-05T19:43:03.780Z,5.58
2018-09-05T19:45:32.886Z,5.20
2018-09-05T19:48:01.765Z,5.50
2018-09-05T19:50:31.842Z,5.07
2018-09-05T19:53:00.293Z,5.63
2018-09-05T19:55:29.352Z,4.87
2018-09-05T19:57:57.835Z,5.30
2018-09-05T20:00:26.894Z,5.10
2018-09-05T20:02:55.803Z,4.93
2018-09-05T20:05:24.878Z,5.40
2018-09-05T20:07:53.822Z,5.50
2018-09-05T20:10:24.782Z,5.33
2018-09-05T20:12:53.759Z,5.43
2018-09-05T20:15:23.489Z,5.23
2018-09-05T20:17:52.371Z,5.27
2018-09-05T20:20:21.422Z,5.27
2018-09-05T20:22:50.362Z,4.90
2018-09-05T20:25:19.370Z,5.40
2018-09-05T20:27:48.288Z,5.20
2018-09-05T20:30:17.385Z,5.63
2018-09-05T20:32:46.307Z,4.93
2018-09-05T20:35:18.758Z,5.00
2018-09-05T20:37:47.670Z,4.87
2018-09-05T20:40:16.712Z,5.30
2018-09-05T20:42:45.168Z,5.40
2018-09-05T20:45:19.283Z,5.10
2018-09-05T20:47:48.152Z,5.33
2018-09-05T20:50:23.104Z,5.47
2018-09-05T20:52:51.993Z,5.27
2018-09-05T20:55:21.001Z,5.20
2018-09-05T20:57:49.490Z,5.43
2018-09-05T21:00:18.564Z,5.67
2018-09-05T21:02:47.479Z,5.53
2018-09-05T21:05:16.191Z,5.10
2018-09-05T21:07:45.153Z,5.20
2018-09-05T21:10:17.567Z,6.23
2018-09-05T21:12:46.469Z,5.67
2018-09-05T21:15:15.475Z,5.17
2018-09-05T21:17:44.375Z,5.20
2018-09-05T21:20:13.017Z,6.17
2018-09-05T21:22:41.550Z,6.30
2018-09-05T21:25:10.154Z,5.97
2018-09-05T21:27:39.038Z,5.83
2018-09-05T21:30:07.676Z,6.03
2018-09-05T21:32:36.574Z,5.63
2018-09-05T21:35:05.206Z,6.13
2018-09-05T21:37:34.092Z,5.00
2018-09-05T21:40:02.746Z,5.50
2018-09-05T21:42:31.642Z,5.40
2018-09-05T21:45:01.322Z,5.40
2018-09-05T21:47:29.782Z,5.87
2018-09-05T21:50:04.829Z,5.67
2018-09-05T21:52:33.259Z,4.80
2018-09-05T21:55:01.867Z,5.87
2018-09-05T21:57:30.322Z,6.10
2018-09-05T21:59:59.300Z,6.03
2018-09-05T22:02:28.235Z,5.40
2018-09-05T22:04:58.370Z,5.93
2018-09-05T22:07:26.821Z,5.57
2018-09-05T22:09:55.832Z,6.13
2018-09-05T22:12:24.759Z,5.07
2018-09-05T22:14:53.365Z,5.73
2018-09-05T22:17:21.828Z,5.63
2018-09-05T22:19:51.840Z,5.70
2018-09-05T22:22:20.291Z,5.33
2018-09-05T22:24:52.598Z,5.67
2018-09-05T22:27:21.029Z,5.70
2018-09-05T22:29:49.652Z,5.50
2018-09-05T22:32:18.205Z,6.30
2018-09-05T22:34:47.145Z,5.80
2018-09-05T22:37:15.615Z,5.87
2018-09-05T22:39:44.247Z,6.10
2018-09-05T22:42:14.151Z,6.37
2018-09-05T22:44:55.565Z,5.90
2018-09-05T22:47:29.643Z,6.33
2018-09-05T22:50:20.272Z,6.00
2018-09-05T22:53:12.363Z,6.40
2018-09-05T22:56:21.946Z,6.30
2018-09-05T22:58:57.578Z,6.47
2018-09-05T23:01:46.624Z,6.23
2018-09-05T23:04:26.302Z,6.93
2018-09-05T23:08:11.029Z,6.57
2018-09-05T23:10:44.940Z,5.93
2018-09-05T23:13:19.007Z,6.10
2018-09-05T23:16:04.415Z,6.13
2018-09-05T23:18:46.775Z,5.60
2018-09-05T23:21:18.271Z,6.47
2018-09-05T23:23:54.254Z,6.03
2018-09-05T23:26:23.185Z,6.00
2018-09-05T23:28:58.288Z,6.10
2018-09-05T23:31:27.354Z,6.27
2018-09-05T23:33:56.045Z,6.00
2018-09-05T23:36:24.999Z,6.17
2018-09-05T23:39:01.093Z,6.03
2018-09-05T23:41:30.006Z,6.40
2018-09-05T23:43:59.599Z,5.60
2018-09-05T23:46:28.541Z,5.63
2018-09-05T23:48:57.161Z,5.97
2018-09-05T23:51:25.694Z,6.63
2018-09-05T23:53:55.680Z,5.83
2018-09-05T23:56:25.118Z,6.13
2018-09-05T23:58:57.042Z,6.03
